Time;durP1;ratioP1;P1;durP2;ratioP2;P2;SDS_P1;SDS_P2;PMS_P1;PMS_P2;Temp;Humidity;BMP_temperature;BMP_pressure;BME280_temperature;BME280_humidity;BME280_pressure;Samples;Min_cycle;Max_cycle;Signal;HPM_P1;HPM_P2
2023/04/19 00:00:28;;;;;;;5.95;2.92;;;;;;;;;;4988315;28;20041;-78
2023/04/19 00:02:54;;;;;;;5.82;3.45;;;;;;;;;;4988235;28;20032;-79
2023/04/19 00:05:22;;;;;;;3.45;2.65;;;;;;;;;;4988175;28;21159;-79
2023/04/19 00:07:48;;;;;;;4.50;3.13;;;;;;;;;;4988780;28;20101;-78
2023/04/19 00:10:13;;;;;;;4.72;3.70;;;;;;;;;;4988431;28;20097;-78
2023/04/19 00:12:38;;;;;;;5.07;3.10;;;;;;;;;;4988196;28;20057;-79
2023/04/19 00:15:05;;;;;;;5.13;3.40;;;;;;;;;;4987949;28;20819;-79
2023/04/19 00:17:30;;;;;;;6.05;3.38;;;;;;;;;;4990156;28;20040;-80
2023/04/19 00:19:56;;;;;;;6.20;3.30;;;;;;;;;;4988167;28;20034;-79
2023/04/19 00:22:22;;;;;;;5.32;3.15;;;;;;;;;;4983843;28;20054;-79
2023/04/19 00:24:47;;;;;;;5.85;3.30;;;;;;;;;;4991374;28;20034;-79
2023/04/19 00:27:12;;;;;;;4.38;3.00;;;;;;;;;;4991852;28;20030;-79
2023/04/19 00:29:38;;;;;;;5.78;3.33;;;;;;;;;;4991913;28;20024;-78
2023/04/19 00:32:04;;;;;;;7.55;3.50;;;;;;;;;;5007037;28;20030;-78
2023/04/19 00:34:30;;;;;;;4.15;3.30;;;;;;;;;;4994877;28;20093;-78
2023/04/19 00:36:56;;;;;;;4.35;2.85;;;;;;;;;;4991796;28;20026;-78
2023/04/19 00:39:21;;;;;;;4.05;3.10;;;;;;;;;;4991613;28;20430;-78
2023/04/19 00:41:47;;;;;;;4.88;3.20;;;;;;;;;;5006519;28;20042;-78
2023/04/19 00:44:12;;;;;;;5.03;3.17;;;;;;;;;;5007204;28;20018;-78
2023/04/19 00:46:38;;;;;;;5.47;3.10;;;;;;;;;;4991361;28;20018;-78
2023/04/19 00:49:03;;;;;;;3.35;2.38;;;;;;;;;;4991403;28;20034;-78
2023/04/19 00:51:30;;;;;;;4.00;3.03;;;;;;;;;;4991206;28;20037;-79
2023/04/19 00:53:56;;;;;;;4.60;3.03;;;;;;;;;;4991341;28;20368;-79
2023/04/19 00:56:22;;;;;;;4.95;3.30;;;;;;;;;;4990396;28;20494;-79
2023/04/19 00:58:48;;;;;;;4.93;3.42;;;;;;;;;;4987437;28;20033;-79
2023/04/19 01:01:14;;;;;;;4.63;3.00;;;;;;;;;;4990856;28;20030;-79
2023/04/19 01:03:40;;;;;;;4.35;3.03;;;;;;;;;;4991073;28;20026;-78
2023/04/19 01:06:05;;;;;;;5.00;3.38;;;;;;;;;;4990507;28;20026;-79
2023/04/19 01:08:31;;;;;;;5.70;3.22;;;;;;;;;;4991289;28;20014;-78
2023/04/19 01:10:56;;;;;;;4.95;2.85;;;;;;;;;;4990997;28;20023;-78
2023/04/19 01:13:22;;;;;;;3.67;2.63;;;;;;;;;;4991628;28;20026;-79
2023/04/19 01:15:47;;;;;;;4.72;3.03;;;;;;;;;;4990685;28;20038;-79
2023/04/19 01:18:12;;;;;;;4.20;2.83;;;;;;;;;;4990813;28;20027;-79
2023/04/19 01:20:38;;;;;;;3.72;2.90;;;;;;;;;;4990325;28;20037;-78
2023/04/19 01:23:04;;;;;;;4.03;3.03;;;;;;;;;;4990786;28;20025;-79
2023/04/19 01:25:29;;;;;;;4.68;2.63;;;;;;;;;;4990504;28;20018;-79
2023/04/19 01:27:55;;;;;;;3.80;2.50;;;;;;;;;;4991146;28;20038;-79
2023/04/19 01:30:20;;;;;;;3.55;2.60;;;;;;;;;;4989808;28;20506;-79
2023/04/19 01:32:46;;;;;;;3.00;2.53;;;;;;;;;;4990863;28;20022;-79
2023/04/19 01:35:11;;;;;;;4.28;2.88;;;;;;;;;;4988717;28;20125;-79
2023/04/19 01:37:36;;;;;;;4.80;2.70;;;;;;;;;;4990854;28;20022;-80
2023/04/19 01:40:04;;;;;;;5.57;3.50;;;;;;;;;;4988839;28;20085;-79
2023/04/19 01:42:29;;;;;;;5.57;3.65;;;;;;;;;;4988858;28;20018;-78
2023/04/19 01:44:55;;;;;;;3.95;3.28;;;;;;;;;;4989266;28;20101;-78
2023/04/19 01:47:21;;;;;;;5.32;3.58;;;;;;;;;;5004675;28;20042;-78
2023/04/19 01:49:46;;;;;;;4.80;3.70;;;;;;;;;;4990507;28;20026;-79
2023/04/19 01:52:12;;;;;;;4.55;3.53;;;;;;;;;;4989708;28;20026;-78
2023/04/19 01:54:37;;;;;;;7.30;3.10;;;;;;;;;;4987987;28;20487;-79
2023/04/19 01:57:02;;;;;;;4.85;3.42;;;;;;;;;;4992780;28;20022;-78
2023/04/19 01:59:28;;;;;;;5.53;3.85;;;;;;;;;;4990401;28;20022;-79
2023/04/19 02:01:53;;;;;;;4.53;3.33;;;;;;;;;;4990877;28;20058;-79
2023/04/19 02:04:20;;;;;;;3.22;2.38;;;;;;;;;;4989699;28;20369;-79
2023/04/19 02:06:46;;;;;;;6.35;4.20;;;;;;;;;;4988890;28;20022;-78
2023/04/19 02:09:12;;;;;;;5.75;4.40;;;;;;;;;;4990156;28;20065;-79
2023/04/19 02:11:37;;;;;;;7.35;4.72;;;;;;;;;;4989023;28;20113;-79
2023/04/19 02:14:03;;;;;;;6.22;4.45;;;;;;;;;;5004626;28;20112;-79
2023/04/19 02:16:28;;;;;;;7.63;4.68;;;;;;;;;;4989965;28;20030;-79
2023/04/19 02:18:53;;;;;;;4.85;3.92;;;;;;;;;;4989704;28;20026;-79
2023/04/19 02:21:19;;;;;;;8.23;5.00;;;;;;;;;;4988158;28;20394;-80
2023/04/19 02:23:44;;;;;;;9.95;5.22;;;;;;;;;;4989910;28;20018;-79
2023/04/19 02:26:10;;;;;;;8.02;4.45;;;;;;;;;;4989007;28;20045;-79
2023/04/19 02:28:36;;;;;;;9.50;5.07;;;;;;;;;;4989589;28;20093;-79
2023/04/19 02:31:05;;;;;;;6.93;4.60;;;;;;;;;;4989765;28;20123;-78
2023/04/19 02:33:31;;;;;;;7.93;4.80;;;;;;;;;;4990029;28;20036;-79
2023/04/19 02:35:56;;;;;;;8.20;4.80;;;;;;;;;;4988610;28;20027;-78
2023/04/19 02:38:22;;;;;;;6.88;4.85;;;;;;;;;;4989082;28;20022;-79
2023/04/19 02:40:47;;;;;;;6.10;4.45;;;;;;;;;;5004115;28;20038;-79
2023/04/19 02:43:13;;;;;;;10.23;5.38;;;;;;;;;;4989257;28;20466;-79
2023/04/19 02:45:38;;;;;;;7.18;5.05;;;;;;;;;;4988335;28;20876;-79
2023/04/19 02:48:04;;;;;;;8.10;5.47;;;;;;;;;;4989118;28;20053;-79
2023/04/19 02:50:31;;;;;;;4.55;3.60;;;;;;;;;;5003532;28;20018;-79
2023/04/19 02:52:57;;;;;;;10.05;4.85;;;;;;;;;;4989554;28;20513;-78
2023/04/19 02:55:22;;;;;;;8.63;3.85;;;;;;;;;;5003547;28;20026;-78
2023/04/19 02:57:47;;;;;;;8.65;4.60;;;;;;;;;;4988841;28;20076;-78
2023/04/19 03:00:13;;;;;;;10.55;4.85;;;;;;;;;;4988704;28;20030;-78
2023/04/19 03:02:40;;;;;;;8.52;4.80;;;;;;;;;;4988989;28;20068;-79
2023/04/19 03:05:06;;;;;;;9.65;4.35;;;;;;;;;;4988588;28;20073;-78
2023/04/19 03:07:31;;;;;;;7.88;4.85;;;;;;;;;;4988725;28;20386;-79
2023/04/19 03:09:57;;;;;;;7.53;4.63;;;;;;;;;;4988294;28;20026;-79
2023/04/19 03:12:22;;;;;;;5.63;4.13;;;;;;;;;;4989081;28;20038;-79
2023/04/19 03:14:48;;;;;;;8.13;3.92;;;;;;;;;;4988443;28;20085;-78
2023/04/19 03:17:13;;;;;;;7.38;4.38;;;;;;;;;;5003114;28;20029;-78
2023/04/19 03:19:39;;;;;;;6.30;3.55;;;;;;;;;;4987759;28;20390;-78
2023/04/19 03:22:04;;;;;;;6.88;3.58;;;;;;;;;;5000629;28;20034;-79
2023/04/19 03:24:30;;;;;;;6.63;3.33;;;;;;;;;;4988937;28;20026;-78
2023/04/19 03:26:56;;;;;;;5.95;3.22;;;;;;;;;;4988412;28;20034;-78
2023/04/19 03:29:22;;;;;;;5.03;2.75;;;;;;;;;;4988316;28;20398;-78
2023/04/19 03:31:47;;;;;;;8.77;3.78;;;;;;;;;;4988360;28;20041;-79
2023/04/19 03:34:13;;;;;;;6.47;3.83;;;;;;;;;;4987665;28;20033;-79
2023/04/19 03:36:39;;;;;;;6.38;4.07;;;;;;;;;;4987437;28;20026;-79
2023/04/19 03:39:05;;;;;;;2.95;2.58;;;;;;;;;;4986786;28;20054;-79
2023/04/19 03:41:30;;;;;;;9.68;3.70;;;;;;;;;;4988409;28;20336;-78
2023/04/19 03:43:57;;;;;;;7.50;3.97;;;;;;;;;;4988606;28;20483;-78
2023/04/19 03:46:22;;;;;;;9.80;4.13;;;;;;;;;;4987777;28;20044;-78
2023/04/19 03:48:48;;;;;;;7.47;3.97;;;;;;;;;;4987872;28;20045;-79
2023/04/19 03:51:14;;;;;;;8.18;4.32;;;;;;;;;;4986048;28;20026;-79
2023/04/19 03:53:40;;;;;;;7.30;4.03;;;;;;;;;;4991384;28;20026;-79
2023/04/19 03:56:05;;;;;;;5.03;3.25;;;;;;;;;;4989519;28;20042;-78
2023/04/19 03:58:31;;;;;;;9.00;4.35;;;;;;;;;;4988955;28;20042;-78
2023/04/19 04:00:58;;;;;;;5.75;3.30;;;;;;;;;;4988213;28;20100;-79
2023/04/19 04:03:23;;;;;;;10.55;4.32;;;;;;;;;;4989275;28;20026;-78
2023/04/19 04:05:48;;;;;;;8.40;3.80;;;;;;;;;;4988991;28;20026;-78
2023/04/19 04:08:14;;;;;;;7.88;3.67;;;;;;;;;;4988857;28;20019;-78
2023/04/19 04:10:39;;;;;;;4.78;2.92;;;;;;;;;;4988398;28;20034;-78
2023/04/19 04:13:05;;;;;;;10.88;4.50;;;;;;;;;;4988291;28;20033;-78
2023/04/19 04:15:30;;;;;;;4.63;3.03;;;;;;;;;;4986056;28;20022;-79
2023/04/19 04:17:55;;;;;;;6.05;3.08;;;;;;;;;;4986873;28;20035;-79
2023/04/19 04:20:21;;;;;;;5.63;3.15;;;;;;;;;;4986091;28;20025;-78
2023/04/19 04:22:46;;;;;;;5.72;3.30;;;;;;;;;;4987977;28;20026;-79
2023/04/19 04:25:12;;;;;;;6.30;3.10;;;;;;;;;;4987683;28;20033;-80
2023/04/19 04:27:38;;;;;;;5.03;2.70;;;;;;;;;;4987782;28;20032;-79
2023/04/19 04:30:07;;;;;;;4.68;3.35;;;;;;;;;;4987446;28;20022;-79
2023/04/19 04:32:34;;;;;;;3.55;2.40;;;;;;;;;;4987480;28;20116;-79
2023/04/19 04:35:07;;;;;;;7.18;2.97;;;;;;;;;;4987206;28;20574;-79
2023/04/19 04:37:33;;;;;;;5.57;2.92;;;;;;;;;;4987389;28;20030;-78
2023/04/19 04:40:00;;;;;;;6.85;3.22;;;;;;;;;;4985314;28;20034;-78
2023/04/19 04:42:26;;;;;;;4.47;3.28;;;;;;;;;;4986169;28;20478;-78
2023/04/19 04:44:52;;;;;;;4.95;2.40;;;;;;;;;;4988421;28;20038;-78
2023/04/19 04:47:17;;;;;;;6.10;2.78;;;;;;;;;;5001289;28;20026;-78
2023/04/19 04:49:43;;;;;;;4.47;2.10;;;;;;;;;;4986892;28;20029;-78
2023/04/19 04:52:08;;;;;;;4.25;2.80;;;;;;;;;;4986972;28;20454;-78
2023/04/19 04:54:34;;;;;;;4.07;2.95;;;;;;;;;;4984949;28;20482;-79
2023/04/19 04:57:00;;;;;;;3.88;2.10;;;;;;;;;;4986587;28;20533;-78
2023/04/19 04:59:25;;;;;;;5.15;3.03;;;;;;;;;;4986291;28;20050;-78
2023/04/19 05:01:51;;;;;;;3.17;2.40;;;;;;;;;;4983649;28;20397;-78
2023/04/19 05:04:17;;;;;;;4.95;2.45;;;;;;;;;;4984698;28;20030;-80
2023/04/19 05:06:43;;;;;;;3.58;2.50;;;;;;;;;;4988547;28;20113;-79
2023/04/19 05:09:09;;;;;;;3.92;2.33;;;;;;;;;;4988243;28;20129;-79
2023/04/19 05:11:34;;;;;;;3.40;2.13;;;;;;;;;;4991533;28;20057;-79
2023/04/19 05:14:00;;;;;;;3.42;2.10;;;;;;;;;;4990096;28;20026;-78
2023/04/19 05:16:26;;;;;;;3.55;2.13;;;;;;;;;;4990803;28;20033;-78
2023/04/19 05:18:51;;;;;;;3.63;2.20;;;;;;;;;;4990369;28;20034;-77
2023/04/19 05:21:17;;;;;;;4.55;2.75;;;;;;;;;;4990174;28;20018;-79
2023/04/19 05:23:42;;;;;;;3.45;2.25;;;;;;;;;;4991270;28;20037;-79
2023/04/19 05:26:11;;;;;;;3.35;2.45;;;;;;;;;;5004764;28;20065;-78
2023/04/19 05:28:37;;;;;;;2.72;1.90;;;;;;;;;;4990523;28;20030;-78
2023/04/19 05:31:03;;;;;;;2.95;2.15;;;;;;;;;;4986829;28;20033;-80
2023/04/19 05:33:28;;;;;;;4.13;2.00;;;;;;;;;;4989852;28;20383;-79
2023/04/19 05:35:54;;;;;;;2.83;1.90;;;;;;;;;;4989421;28;20536;-79
2023/04/19 05:38:19;;;;;;;3.50;2.17;;;;;;;;;;4988524;28;20033;-79
2023/04/19 05:40:45;;;;;;;3.53;1.95;;;;;;;;;;5004514;28;20430;-80
2023/04/19 05:43:10;;;;;;;2.92;1.80;;;;;;;;;;4993586;28;20026;-79
2023/04/19 05:45:36;;;;;;;3.85;2.17;;;;;;;;;;4989894;28;20019;-79
2023/04/19 05:48:01;;;;;;;3.50;1.80;;;;;;;;;;4989943;28;20553;-79
2023/04/19 05:50:26;;;;;;;1.65;1.55;;;;;;;;;;4989800;28;20113;-79
2023/04/19 05:52:52;;;;;;;2.22;1.50;;;;;;;;;;4988501;28;20022;-79
2023/04/19 05:55:17;;;;;;;3.30;1.52;;;;;;;;;;5005349;28;20034;-79
2023/04/19 05:57:43;;;;;;;3.05;2.05;;;;;;;;;;4989915;28;20037;-79
2023/04/19 06:00:09;;;;;;;2.42;1.95;;;;;;;;;;4988361;28;20398;-79
2023/04/19 06:02:35;;;;;;;3.80;1.80;;;;;;;;;;4989887;28;20084;-80
2023/04/19 06:05:03;;;;;;;1.90;1.67;;;;;;;;;;5005017;28;20378;-80
2023/04/19 06:07:29;;;;;;;2.70;1.63;;;;;;;;;;4989852;28;20101;-79
2023/04/19 06:09:55;;;;;;;2.90;1.90;;;;;;;;;;4988588;28;20034;-79
2023/04/19 06:12:20;;;;;;;4.10;2.08;;;;;;;;;;4989450;28;20014;-79
2023/04/19 06:14:46;;;;;;;2.63;1.75;;;;;;;;;;4989625;28;20653;-79
2023/04/19 06:17:11;;;;;;;2.40;1.52;;;;;;;;;;4989440;28;20018;-80
2023/04/19 06:19:36;;;;;;;4.88;2.00;;;;;;;;;;4989815;28;20053;-79
2023/04/19 06:22:02;;;;;;;3.55;2.45;;;;;;;;;;4988757;28;20499;-79
2023/04/19 06:24:27;;;;;;;5.00;1.80;;;;;;;;;;4988417;28;20030;-79
2023/04/19 06:26:53;;;;;;;3.97;1.88;;;;;;;;;;4989723;28;20027;-79
2023/04/19 06:29:20;;;;;;;3.28;2.25;;;;;;;;;;5004638;28;20022;-78
2023/04/19 06:31:46;;;;;;;3.53;1.88;;;;;;;;;;5004188;28;20026;-79
2023/04/19 06:34:12;;;;;;;4.60;2.33;;;;;;;;;;4989199;28;20084;-79
2023/04/19 06:36:37;;;;;;;3.88;2.10;;;;;;;;;;4989046;28;20022;-80
2023/04/19 06:39:03;;;;;;;3.92;1.90;;;;;;;;;;4985223;28;20034;-79
2023/04/19 06:41:28;;;;;;;5.78;1.77;;;;;;;;;;4972337;28;20756;-79
2023/04/19 06:43:53;;;;;;;3.00;2.25;;;;;;;;;;4985278;28;21048;-79
2023/04/19 06:46:19;;;;;;;27.42;4.43;;;;;;;;;;4985274;28;20157;-79
2023/04/19 06:48:44;;;;;;;44.78;6.75;;;;;;;;;;4988939;28;20116;-79
2023/04/19 06:51:10;;;;;;;3.40;1.90;;;;;;;;;;4974678;28;20084;-80
2023/04/19 06:53:35;;;;;;;2.90;1.70;;;;;;;;;;4983434;28;20033;-79
2023/04/19 06:56:05;;;;;;;3.28;1.63;;;;;;;;;;4983247;28;20069;-79
2023/04/19 06:58:31;;;;;;;4.95;2.10;;;;;;;;;;4982843;28;20029;-80
2023/04/19 07:00:57;;;;;;;3.88;1.88;;;;;;;;;;4994839;28;20037;-79
2023/04/19 07:03:22;;;;;;;3.40;1.77;;;;;;;;;;4985293;28;20023;-79
2023/04/19 07:05:48;;;;;;;3.53;1.85;;;;;;;;;;4985379;28;20030;-80
2023/04/19 07:08:14;;;;;;;3.75;1.50;;;;;;;;;;4985011;28;20029;-80
2023/04/19 07:10:42;;;;;;;2.63;1.63;;;;;;;;;;4981838;28;20030;-79
2023/04/19 07:13:08;;;;;;;2.35;1.75;;;;;;;;;;4985797;28;20188;-80
2023/04/19 07:15:33;;;;;;;3.63;1.90;;;;;;;;;;4985298;28;20976;-80
2023/04/19 07:17:58;;;;;;;5.22;1.95;;;;;;;;;;4986402;28;20034;-80
2023/04/19 07:20:24;;;;;;;6.20;2.30;;;;;;;;;;4983939;28;20030;-79
2023/04/19 07:22:49;;;;;;;4.10;2.13;;;;;;;;;;4988930;28;20034;-80
2023/04/19 07:25:15;;;;;;;1.90;1.50;;;;;;;;;;4966379;28;20038;-79
2023/04/19 07:27:40;;;;;;;3.63;1.73;;;;;;;;;;4986165;28;20117;-79
2023/04/19 07:30:06;;;;;;;2.63;1.65;;;;;;;;;;4983163;28;20025;-78
2023/04/19 07:32:31;;;;;;;2.97;2.00;;;;;;;;;;4982551;28;20117;-79
2023/04/19 07:34:57;;;;;;;3.92;1.85;;;;;;;;;;4985076;28;20353;-80
2023/04/19 07:37:22;;;;;;;2.35;1.50;;;;;;;;;;4998532;28;20500;-80
2023/04/19 07:39:47;;;;;;;1.95;1.50;;;;;;;;;;4985488;28;20049;-80
2023/04/19 07:42:13;;;;;;;1.70;1.50;;;;;;;;;;4996236;28;20033;-79
2023/04/19 07:44:38;;;;;;;2.65;1.67;;;;;;;;;;4983073;28;20137;-79
2023/04/19 07:47:07;;;;;;;4.28;1.75;;;;;;;;;;4986191;28;20398;-79
2023/04/19 07:49:33;;;;;;;2.15;1.67;;;;;;;;;;4983806;28;20033;-80
2023/04/19 07:52:02;;;;;;;2.25;1.65;;;;;;;;;;4980432;28;20034;-79
2023/04/19 07:54:29;;;;;;;2.92;1.55;;;;;;;;;;4983345;28;20038;-79
2023/04/19 07:56:54;;;;;;;4.95;1.80;;;;;;;;;;4986306;28;20121;-79
2023/04/19 07:59:19;;;;;;;2.90;1.80;;;;;;;;;;4984243;28;20060;-79
2023/04/19 08:01:45;;;;;;;3.05;1.45;;;;;;;;;;4983644;28;20391;-80
2023/04/19 08:04:10;;;;;;;2.50;1.90;;;;;;;;;;4985131;28;20022;-79
2023/04/19 08:06:38;;;;;;;2.63;1.85;;;;;;;;;;4985893;28;20018;-80
2023/04/19 08:09:03;;;;;;;3.13;1.83;;;;;;;;;;4983727;28;20177;-80
2023/04/19 08:11:28;;;;;;;2.17;1.48;;;;;;;;;;4980273;28;20481;-79
2023/04/19 08:13:54;;;;;;;2.65;2.08;;;;;;;;;;4985450;28;20034;-79
2023/04/19 08:16:19;;;;;;;3.15;1.90;;;;;;;;;;4985262;28;20789;-80
2023/04/19 08:18:45;;;;;;;6.18;1.77;;;;;;;;;;4984113;28;20022;-79
2023/04/19 08:21:10;;;;;;;3.50;1.63;;;;;;;;;;4981508;28;20025;-80
2023/04/19 08:23:36;;;;;;;2.88;1.80;;;;;;;;;;5000213;28;20680;-80
2023/04/19 08:26:02;;;;;;;4.38;1.70;;;;;;;;;;5000396;28;20042;-80
2023/04/19 08:28:27;;;;;;;2.30;1.65;;;;;;;;;;4984263;28;20026;-79
2023/04/19 08:30:53;;;;;;;3.28;1.77;;;;;;;;;;4984122;28;20038;-79
2023/04/19 08:33:19;;;;;;;2.97;1.80;;;;;;;;;;4984379;28;20050;-79
2023/04/19 08:35:44;;;;;;;1.52;1.42;;;;;;;;;;4985234;28;20018;-80
2023/04/19 08:38:10;;;;;;;2.85;1.80;;;;;;;;;;4985774;28;20430;-80
2023/04/19 08:40:50;;;;;;;3.90;1.50;;;;;;;;;;4981301;28;21509;-79
2023/04/19 08:43:16;;;;;;;2.75;1.67;;;;;;;;;;4999011;28;20039;-79
2023/04/19 08:45:45;;;;;;;35.63;3.95;;;;;;;;;;4985595;28;20033;-80
2023/04/19 08:48:10;;;;;;;2.03;1.50;;;;;;;;;;4988857;28;20022;-79
2023/04/19 08:50:40;;;;;;;2.80;1.80;;;;;;;;;;4985726;28;21508;-79
2023/04/19 08:53:07;;;;;;;2.67;1.73;;;;;;;;;;5001978;28;20027;-80
2023/04/19 08:55:32;;;;;;;3.05;1.60;;;;;;;;;;4988828;28;20034;-80
2023/04/19 08:57:58;;;;;;;2.63;1.90;;;;;;;;;;4988118;28;20129;-80
2023/04/19 09:00:24;;;;;;;3.65;2.03;;;;;;;;;;4985853;28;20458;-79
2023/04/19 09:02:51;;;;;;;3.33;1.70;;;;;;;;;;4987653;28;20080;-79
2023/04/19 09:05:17;;;;;;;1.85;1.60;;;;;;;;;;4988270;28;20499;-80
2023/04/19 09:07:44;;;;;;;3.05;1.80;;;;;;;;;;4985684;28;20033;-80
2023/04/19 09:10:12;;;;;;;5.80;1.90;;;;;;;;;;4985449;28;20081;-79
2023/04/19 09:12:38;;;;;;;2.78;1.80;;;;;;;;;;4986793;28;20443;-80
2023/04/19 09:15:07;;;;;;;4.63;1.95;;;;;;;;;;5000973;28;20032;-80
2023/04/19 09:17:34;;;;;;;2.35;1.35;;;;;;;;;;5003545;28;20023;-80
2023/04/19 09:20:00;;;;;;;3.90;2.00;;;;;;;;;;4986837;28;20076;-79
2023/04/19 09:22:26;;;;;;;2.65;1.98;;;;;;;;;;4986880;28;20022;-79
2023/04/19 09:24:51;;;;;;;3.83;2.05;;;;;;;;;;5000962;28;20034;-80
2023/04/19 09:27:29;;;;;;;2.72;1.88;;;;;;;;;;4988580;28;20030;-80
2023/04/19 09:29:59;;;;;;;7.88;2.28;;;;;;;;;;5001651;28;20099;-79
2023/04/19 09:32:25;;;;;;;5.23;2.30;;;;;;;;;;4986990;28;20026;-79
2023/04/19 09:34:58;;;;;;;5.68;2.58;;;;;;;;;;4992091;28;20379;-79
2023/04/19 09:37:25;;;;;;;4.65;2.20;;;;;;;;;;4988277;28;20018;-80
2023/04/19 09:39:51;;;;;;;6.07;2.55;;;;;;;;;;4987819;28;20030;-79
2023/04/19 09:42:18;;;;;;;4.95;2.50;;;;;;;;;;4983509;28;20023;-80
2023/04/19 09:44:57;;;;;;;5.22;2.70;;;;;;;;;;4984256;28;20038;-80
2023/04/19 09:47:28;;;;;;;3.90;2.75;;;;;;;;;;4987418;28;20502;-80
2023/04/19 09:50:04;;;;;;;2.88;2.05;;;;;;;;;;4986214;28;20050;-80
2023/04/19 09:52:31;;;;;;;3.53;2.58;;;;;;;;;;4984573;28;20387;-80
2023/04/19 09:55:00;;;;;;;4.30;2.20;;;;;;;;;;4990018;28;20568;-80
2023/04/19 09:57:26;;;;;;;8.15;3.10;;;;;;;;;;4998788;28;20497;-80
2023/04/19 09:59:51;;;;;;;3.80;2.40;;;;;;;;;;4987089;28;20042;-79
2023/04/19 10:02:18;;;;;;;3.28;2.67;;;;;;;;;;4985420;28;20089;-80
2023/04/19 10:04:44;;;;;;;6.07;2.80;;;;;;;;;;5002160;28;20481;-79
2023/04/19 10:07:09;;;;;;;3.05;2.17;;;;;;;;;;4987000;28;20141;-80
2023/04/19 10:09:36;;;;;;;4.95;2.50;;;;;;;;;;4987446;28;20030;-79
2023/04/19 10:12:02;;;;;;;2.90;2.42;;;;;;;;;;4983035;28;20045;-80
2023/04/19 10:14:34;;;;;;;6.10;2.40;;;;;;;;;;4986117;28;20054;-80
2023/04/19 10:17:00;;;;;;;2.70;2.28;;;;;;;;;;4988749;28;20026;-80
2023/04/19 10:19:26;;;;;;;6.88;2.80;;;;;;;;;;4986291;28;20497;-80
2023/04/19 10:21:52;;;;;;;19.55;4.15;;;;;;;;;;4983889;28;20125;-80
2023/04/19 10:24:20;;;;;;;3.72;2.53;;;;;;;;;;4984841;28;20458;-80
2023/04/19 10:27:06;;;;;;;4.35;2.58;;;;;;;;;;4987749;28;20018;-80
2023/04/19 10:29:55;;;;;;;5.25;2.38;;;;;;;;;;4987536;28;20046;-80
2023/04/19 10:32:23;;;;;;;13.40;2.95;;;;;;;;;;5001733;28;20080;-80
2023/04/19 10:34:51;;;;;;;7.78;3.05;;;;;;;;;;4984238;28;20030;-80
2023/04/19 10:37:20;;;;;;;416.38;37.53;;;;;;;;;;4987337;28;20475;-80
2023/04/19 10:39:45;;;;;;;2.97;2.60;;;;;;;;;;4986855;28;20069;-79
2023/04/19 10:42:11;;;;;;;4.35;2.83;;;;;;;;;;4981480;28;20030;-80
2023/04/19 10:44:37;;;;;;;5.28;3.25;;;;;;;;;;4985369;28;20026;-80
2023/04/19 10:47:04;;;;;;;4.13;2.88;;;;;;;;;;4987006;28;20045;-80
2023/04/19 10:49:30;;;;;;;5.07;2.50;;;;;;;;;;5001807;28;20030;-79
2023/04/19 10:51:57;;;;;;;5.65;2.65;;;;;;;;;;4982660;28;21418;-80
2023/04/19 10:54:32;;;;;;;3.97;2.35;;;;;;;;;;4984613;28;20746;-80
2023/04/19 10:57:04;;;;;;;4.22;2.40;;;;;;;;;;4985268;28;20034;-80
2023/04/19 10:59:33;;;;;;;3.70;2.33;;;;;;;;;;4983989;28;20455;-80
2023/04/19 11:02:02;;;;;;;4.30;2.60;;;;;;;;;;4984712;28;20062;-80
2023/04/19 11:04:30;;;;;;;3.45;2.38;;;;;;;;;;4999451;28;20073;-79
2023/04/19 11:07:03;;;;;;;4.95;2.70;;;;;;;;;;4985414;28;20035;-80
2023/04/19 11:09:35;;;;;;;5.10;2.60;;;;;;;;;;4984939;28;20030;-80
2023/04/19 11:12:12;;;;;;;2.70;2.38;;;;;;;;;;4984293;28;20379;-80
2023/04/19 11:14:44;;;;;;;3.65;2.50;;;;;;;;;;4998648;28;20080;-80
2023/04/19 11:17:15;;;;;;;8.07;2.75;;;;;;;;;;4985171;28;20049;-80
2023/04/19 11:19:51;;;;;;;5.35;2.90;;;;;;;;;;4986288;28;20550;-80
2023/04/19 11:22:17;;;;;;;3.33;2.58;;;;;;;;;;4997066;28;20038;-79
2023/04/19 11:24:48;;;;;;;3.17;2.33;;;;;;;;;;4984702;28;20037;-80
2023/04/19 11:27:13;;;;;;;5.03;2.58;;;;;;;;;;4985636;28;20054;-80
2023/04/19 11:29:39;;;;;;;4.20;2.83;;;;;;;;;;4983572;28;20445;-80
2023/04/19 11:32:04;;;;;;;3.90;2.55;;;;;;;;;;4982062;28;20069;-80
2023/04/19 11:34:35;;;;;;;3.60;2.38;;;;;;;;;;5000575;28;20805;-80
2023/04/19 11:37:02;;;;;;;5.20;2.80;;;;;;;;;;4986676;28;20046;-80
2023/04/19 11:39:27;;;;;;;4.63;2.75;;;;;;;;;;4983980;28;20018;-80
2023/04/19 11:41:52;;;;;;;3.28;2.20;;;;;;;;;;4979625;28;20026;-80
2023/04/19 11:44:19;;;;;;;3.00;2.47;;;;;;;;;;4985546;28;20041;-80
2023/04/19 11:47:04;;;;;;;3.38;2.92;;;;;;;;;;4984632;28;20030;-80
2023/04/19 11:49:32;;;;;;;5.15;3.10;;;;;;;;;;4985124;28;20586;-79
2023/04/19 11:51:59;;;;;;;3.90;2.55;;;;;;;;;;4981923;28;20042;-80
2023/04/19 11:54:25;;;;;;;3.03;2.53;;;;;;;;;;4985021;28;20065;-80
2023/04/19 11:57:05;;;;;;;3.90;2.42;;;;;;;;;;4984073;28;20023;-80
2023/04/19 11:59:33;;;;;;;3.92;2.60;;;;;;;;;;4983493;28;20487;-80
2023/04/19 12:02:09;;;;;;;8.75;3.05;;;;;;;;;;4982431;28;20516;-80
2023/04/19 12:04:35;;;;;;;4.97;2.58;;;;;;;;;;4982501;28;20019;-80
2023/04/19 12:07:01;;;;;;;5.78;3.10;;;;;;;;;;4985352;28;20034;-80
2023/04/19 12:09:27;;;;;;;4.03;1.92;;;;;;;;;;4985700;28;20030;-80
2023/04/19 12:11:52;;;;;;;4.88;2.55;;;;;;;;;;4979560;28;20080;-79
2023/04/19 12:14:21;;;;;;;4.97;2.47;;;;;;;;;;4985307;28;20030;-79
2023/04/19 12:17:09;;;;;;;2.85;2.22;;;;;;;;;;4985163;28;20061;-80
2023/04/19 12:19:42;;;;;;;4.65;2.30;;;;;;;;;;4986641;28;20538;-79
2023/04/19 12:22:23;;;;;;;4.07;2.67;;;;;;;;;;4986208;28;20027;-80
2023/04/19 12:24:50;;;;;;;2.97;2.03;;;;;;;;;;4987080;28;20484;-80
2023/04/19 12:27:17;;;;;;;5.50;2.15;;;;;;;;;;4989984;28;20036;-80
2023/04/19 12:29:42;;;;;;;4.38;2.60;;;;;;;;;;4988374;28;20030;-79
2023/04/19 12:32:09;;;;;;;3.50;2.40;;;;;;;;;;4986081;28;20522;-80
2023/04/19 12:34:35;;;;;;;2.78;2.30;;;;;;;;;;4986793;28;20049;-79
2023/04/19 12:37:01;;;;;;;3.45;2.08;;;;;;;;;;5004593;28;20491;-80
2023/04/19 12:39:27;;;;;;;3.50;2.30;;;;;;;;;;4988090;28;20109;-80
2023/04/19 12:41:53;;;;;;;6.80;2.50;;;;;;;;;;4984244;28;20022;-80
2023/04/19 12:44:18;;;;;;;2.47;2.00;;;;;;;;;;4988414;28;20530;-80
2023/04/19 12:46:43;;;;;;;3.25;2.15;;;;;;;;;;4989544;28;20877;-80
2023/04/19 12:49:09;;;;;;;3.63;2.38;;;;;;;;;;4972755;28;20118;-80
2023/04/19 12:51:35;;;;;;;4.18;2.05;;;;;;;;;;4984697;28;20069;-80
2023/04/19 12:54:01;;;;;;;2.95;1.73;;;;;;;;;;4988262;28;20030;-80
2023/04/19 12:56:26;;;;;;;4.65;2.30;;;;;;;;;;4987975;28;20471;-80
2023/04/19 12:58:52;;;;;;;4.50;2.10;;;;;;;;;;4987225;28;20041;-80
2023/04/19 13:01:17;;;;;;;7.68;2.92;;;;;;;;;;4986902;28;20109;-80
2023/04/19 13:03:43;;;;;;;3.78;2.00;;;;;;;;;;4988492;28;20065;-80
2023/04/19 13:06:11;;;;;;;3.55;2.30;;;;;;;;;;4987395;28;20053;-80
2023/04/19 13:08:37;;;;;;;4.20;2.47;;;;;;;;;;5001193;28;20105;-80
2023/04/19 13:11:03;;;;;;;5.28;2.40;;;;;;;;;;4982977;28;20034;-80
2023/04/19 13:13:28;;;;;;;4.70;2.40;;;;;;;;;;5003547;28;20540;-80
2023/04/19 13:15:53;;;;;;;5.10;3.45;;;;;;;;;;4987895;28;20475;-79
2023/04/19 13:18:19;;;;;;;3.00;2.22;;;;;;;;;;4987946;28;20485;-79
2023/04/19 13:20:45;;;;;;;3.17;2.40;;;;;;;;;;4985437;28;20510;-80
2023/04/19 13:23:10;;;;;;;3.78;2.10;;;;;;;;;;4988706;28;20475;-80
2023/04/19 13:25:36;;;;;;;2.83;1.95;;;;;;;;;;4988895;28;20018;-80
2023/04/19 13:28:01;;;;;;;3.50;1.92;;;;;;;;;;4990432;28;20022;-82
2023/04/19 13:30:27;;;;;;;4.57;2.33;;;;;;;;;;4990915;28;20027;-87
2023/04/19 13:32:52;;;;;;;3.30;2.10;;;;;;;;;;4992678;28;20025;-82
2023/04/19 13:35:18;;;;;;;3.67;2.03;;;;;;;;;;5007296;28;20446;-84
2023/04/19 13:37:45;;;;;;;2.20;1.92;;;;;;;;;;4990294;28;20026;-86
2023/04/19 13:40:11;;;;;;;2.97;1.92;;;;;;;;;;4990215;28;20026;-82
2023/04/19 13:42:36;;;;;;;2.80;1.98;;;;;;;;;;4991228;28;20026;-82
2023/04/19 13:45:02;;;;;;;5.60;2.05;;;;;;;;;;4991981;28;20471;-87
2023/04/19 13:47:27;;;;;;;3.80;2.30;;;;;;;;;;4993740;28;20046;-82
2023/04/19 13:49:53;;;;;;;4.10;2.15;;;;;;;;;;4994685;28;20037;-83
2023/04/19 13:52:18;;;;;;;3.50;2.88;;;;;;;;;;4988969;28;20082;-85
2023/04/19 13:54:45;;;;;;;6.15;2.47;;;;;;;;;;4995460;28;20041;-87
2023/04/19 13:57:11;;;;;;;3.95;2.50;;;;;;;;;;4993326;28;20022;-84
2023/04/19 13:59:36;;;;;;;2.67;2.25;;;;;;;;;;5010077;28;20026;-83
2023/04/19 14:02:03;;;;;;;4.47;2.55;;;;;;;;;;4991406;28;20090;-91
2023/04/19 14:04:29;;;;;;;4.20;2.30;;;;;;;;;;4989755;28;20026;-84
2023/04/19 14:06:54;;;;;;;3.38;2.60;;;;;;;;;;4992494;28;20023;-83
2023/04/19 14:09:19;;;;;;;3.20;2.35;;;;;;;;;;4993152;28;20018;-88
2023/04/19 14:11:45;;;;;;;4.68;2.92;;;;;;;;;;4988149;28;20041;-83
2023/04/19 14:14:11;;;;;;;3.90;2.78;;;;;;;;;;4992196;28;20588;-83
2023/04/19 14:16:36;;;;;;;3.63;2.67;;;;;;;;;;4991233;28;20033;-87
2023/04/19 14:19:02;;;;;;;3.00;2.53;;;;;;;;;;4991524;28;20633;-83
2023/04/19 14:21:29;;;;;;;4.32;2.90;;;;;;;;;;4988494;28;20019;-84
2023/04/19 14:23:54;;;;;;;6.55;3.13;;;;;;;;;;4991842;28;20294;-82
2023/04/19 14:26:20;;;;;;;3.53;2.67;;;;;;;;;;4990861;28;20852;-85
2023/04/19 14:28:45;;;;;;;5.95;3.38;;;;;;;;;;4992630;28;20021;-85
2023/04/19 14:31:10;;;;;;;4.32;2.88;;;;;;;;;;4991032;28;20030;-83
2023/04/19 14:33:36;;;;;;;6.38;3.00;;;;;;;;;;4991482;28;20025;-87
2023/04/19 14:36:02;;;;;;;4.65;3.08;;;;;;;;;;4988897;28;20697;-84
2023/04/19 14:38:27;;;;;;;4.78;3.00;;;;;;;;;;5002973;28;20014;-82